• Join FlightAware (Why Join?)
  • Login
  • US Flag 
10:50AM EDT


 

Airport Tracker/Info


-or-


 

Live Flight TrackerFlight Track Log ✈ AAL1144 ✈ 03-May-2013 ✈ KSNA - KORD

Flight Track Log - Related Links

Times and Time Zones

All times are in EDT time to prevent confusion due to time zone crossing. See the AAL1144 flight status page for this flight to view local times or setup timezone preferences in your user account.

Time Position Orientation Groundspeed Altitude Reporting Facility
EDT Latitude Longitude Course Direction KTS MPH feet Rate Location/Type
10:00PM 33.6580 -117.8800 205° Southwest 159 183 1,100  Level FlightAware
10:01PM 33.6330 -117.8900 198° South 193 222 2,000 1,560 Climbing FlightAware
10:01PM 33.6200 -117.8930 191° South 219 252 2,300 1,800 Climbing FlightAware
10:01PM 33.5910 -117.8970 187° South 252 290 3,200 2,700 Climbing FlightAware
10:02PM 33.5550 -117.8890 170° South 263 303 4,800 2,940 Climbing FlightAware
10:02PM 33.5340 -117.8630 134° Southeast 281 323 5,900 3,120 Climbing FlightAware
10:02PM 33.5300 -117.8410 102° East 282 325 6,900 3,960 Climbing FlightAware
10:03PM 33.5360 -117.7930 81° East 277 319 8,900 3,000 Climbing FlightAware
10:04PM 33.5440 -117.7300 81° East 310 357 10,400 1,860 Climbing FlightAware
10:04PM 33.5550 -117.6570 80° East 357 411 11,400 2,160 Climbing FlightAware
10:05PM 33.5700 -117.5680 79° East 372 428 13,500 2,880 Climbing FlightAware
10:06PM 33.5810 -117.4850 81° East 380 437 15,500 2,640 Climbing FlightAware
10:06PM 33.5870 -117.3880 86° East 396 456 17,300 2,400 Climbing FlightAware
10:07PM 33.5900 -117.3020 88° East 407 468 18,900 2,400 Climbing FlightAware
10:08PM 33.5940 -117.2100 87° East 417 480 20,500 2,040 Climbing FlightAware
10:09PM 33.5990 -117.1010 87° East 438 504 21,800 1,740 Climbing FlightAware
10:09PM 33.6010 -117.0070 89° East 449 517 23,000 1,800 Climbing FlightAware
10:10PM 33.6150 -116.9060 81° East 458 527 24,200 1,620 Climbing FlightAware
10:11PM 33.6360 -116.8110 75° East 467 537 25,300 1,500 Climbing FlightAware
10:11PM 33.6570 -116.7220 74° East 474 545 26,200 1,680 Climbing FlightAware
10:12PM 33.6850 -116.6030 74° East 484 557 27,400 840 Climbing FlightAware
10:13PM 33.7100 -116.4990 74° East 484 557 27,400 1,440 Level FlightAware
10:13PM 33.7380 -116.3700 75° East 493 567 29,600 2,160 Climbing FlightAware
10:14PM 33.7650 -116.2470 75° East 497 572 30,700 780 Climbing FlightAware
10:15PM 33.7830 -116.1650 75° East 497 572 30,700  Level FlightAware
10:16PM 33.8090 -116.0520 74° East 497 572 30,700  Level FlightAware
10:16PM 33.8290 -115.9610 75° East 497 572 30,700  Level FlightAware
10:17PM 33.8490 -115.8700 75° East 497 572 30,700  Level FlightAware
10:18PM 33.8690 -115.7790 75° East 497 572 30,700  Level FlightAware
10:18PM 33.8890 -115.6880 75° East 497 572 30,700  Level FlightAware
10:19PM 33.9150 -115.5740 75° East 497 572 30,700  Level FlightAware
10:20PM 33.9350 -115.4830 75° East 497 572 30,700  Level FlightAware
10:20PM 33.9550 -115.3920 75° East 497 572 30,700  Level FlightAware
10:21PM 33.9750 -115.3010 75° East 497 572 30,700  Level FlightAware
10:22PM 33.9960 -115.2100 74° East 497 572 30,700  Level FlightAware
10:22PM 34.0160 -115.1190 75° East 497 572 30,700  Level FlightAware
10:23PM 34.0410 -115.0050 75° East 497 572 30,700  Level FlightAware
10:24PM 34.0610 -114.9140 75° East 497 572 30,700 4,440 Level FlightAware
10:25PM 34.1570 -114.5900 70° East 499 574 37,000 4,680 Climbing FlightAware
10:25PM 34.1970 -114.5200 55° Northeast 499 574 37,000  Level FlightAware
10:26PM 34.2640 -114.4070 54° Northeast 499 574 37,000  Level FlightAware
10:27PM 34.3250 -114.3020 55° Northeast 500 575 37,000  Level FlightAware
10:27PM 34.3920 -114.1870 55° Northeast 500 575 37,000  Level FlightAware
10:28PM 34.4490 -114.0880 55° Northeast 499 574 37,000  Level FlightAware
10:29PM 34.5010 -113.9940 56° Northeast 500 575 37,000  Level FlightAware
10:29PM 34.5430 -113.8930 63° Northeast 501 577 37,000  Level FlightAware
10:30PM 34.5890 -113.7760 64° Northeast 501 577 37,000  Level FlightAware
10:31PM 34.6270 -113.6790 65° Northeast 501 577 37,000  Level FlightAware
10:32PM 34.6730 -113.5640 64° Northeast 503 579 37,000  Level FlightAware
10:32PM 34.7130 -113.4620 64° Northeast 503 579 37,000  Level FlightAware
10:33PM 34.7520 -113.3610 65° Northeast 504 580 37,000  Level FlightAware
10:34PM 34.7990 -113.2420 64° Northeast 504 580 37,000  Level FlightAware
10:34PM 34.8380 -113.1410 65° Northeast 504 580 37,000  Level FlightAware
10:35PM 34.8820 -113.0260 65° Northeast 504 580 37,000  Level FlightAware
10:36PM 34.9210 -112.9260 65° Northeast 502 578 37,000  Level FlightAware
10:36PM 34.9610 -112.8230 65° Northeast 502 578 37,000  Level FlightAware
10:37PM 35.0060 -112.7060 65° Northeast 501 577 37,000  Level FlightAware
10:38PM 35.0450 -112.6030 65° Northeast 499 574 37,000  Level FlightAware
10:39PM 35.0880 -112.4910 65° Northeast 499 574 37,000  Level FlightAware
10:39PM 35.1270 -112.3890 65° Northeast 501 577 37,000  Level FlightAware
10:40PM 35.1720 -112.2710 65° Northeast 502 578 37,000  Level FlightAware
10:41PM 35.2100 -112.1690 65° Northeast 501 577 37,000  Level FlightAware
10:41PM 35.2490 -112.0640 66° East 501 577 37,000  Level FlightAware
10:42PM 35.2870 -111.9630 65° Northeast 502 578 37,000 120 Level FlightAware
10:43PM 35.3310 -111.8470 65° Northeast 505 581 37,200 660 Climbing FlightAware
10:43PM 35.3690 -111.7440 66° East 500 575 38,000 1,020 Climbing FlightAware
10:44PM 35.4130 -111.6250 66° East 496 571 38,700 660 Climbing FlightAware
10:45PM 35.4500 -111.5260 65° Northeast 501 577 39,000 180 Climbing FlightAware
10:46PM 35.4930 -111.4080 66° East 504 580 39,000  Level FlightAware
10:46PM 35.5320 -111.3030 65° Northeast 505 581 39,000  Level FlightAware
10:47PM 35.5690 -111.2000 66° East 504 580 39,000  Level FlightAware
10:48PM 35.6060 -111.0990 66° East 500 575 39,000  Level FlightAware
10:48PM 35.6540 -110.9700 65° Northeast 501 577 39,000  Level FlightAware
10:49PM 35.6880 -110.8740 66° East 503 579 39,000  Level FlightAware
10:50PM 35.7360 -110.7420 66° East 502 578 39,000  Level FlightAware
10:51PM 35.7720 -110.6400 66° East 501 577 39,000  Level FlightAware
10:51PM 35.8090 -110.5370 66° East 500 575 39,000  Level FlightAware
10:52PM 35.8500 -110.4220 66° East 497 572 39,000  Level FlightAware
10:53PM 35.8880 -110.3160 66° East 494 568 39,000  Level FlightAware
10:53PM 35.9240 -110.2150 66° East 491 565 39,000  Level FlightAware
10:54PM 35.9660 -110.0960 66° East 489 563 39,000  Level FlightAware
10:55PM 36.0130 -109.9650 66° East 489 563 39,000  Level FlightAware
10:56PM 36.0520 -109.8070 73° East 493 567 39,000  Level FlightAware
10:57PM 36.0830 -109.6900 72° East 496 571 39,000  Level FlightAware
10:57PM 36.1120 -109.5830 71° East 496 571 39,000  Level FlightAware
10:58PM 36.1380 -109.4820 72° East 496 571 39,000  Level FlightAware
10:59PM 36.1620 -109.3900 72° East 496 571 39,000  Level FlightAware
10:59PM 36.1870 -109.2980 71° East 496 571 39,000  Level FlightAware
11:00PM 36.2050 -109.2290 72° East 496 571 39,000  Level FlightAware
11:00PM 36.2290 -109.1370 72° East 496 571 39,000  Level FlightAware
11:01PM 36.2590 -109.0220 72° East 496 571 39,000  Level FlightAware
11:02PM 36.2830 -108.9300 72° East 496 571 39,000  Level FlightAware
11:03PM 36.3380 -108.7160 72° East 498 573 39,000  Level FlightAware
11:03PM 36.3690 -108.5970 72° East 499 574 39,000  Level FlightAware
11:04PM 36.3910 -108.5140 72° East 499 574 39,000  Level FlightAware
11:05PM 36.4150 -108.4220 72° East 499 574 39,000  Level FlightAware
11:05PM 36.4450 -108.3060 72° East 499 574 39,000  Level FlightAware
11:06PM 36.4690 -108.2130 72° East 499 574 39,000  Level FlightAware
11:07PM 36.5060 -108.0570 74° East 502 578 39,000  Level FlightAware
11:08PM 36.5500 -107.8810 73° East 501 577 39,000  Level FlightAware
11:08PM 36.5750 -107.7870 72° East 501 577 39,000  Level FlightAware
11:09PM 36.5990 -107.6940 72° East 501 577 39,000  Level FlightAware
11:10PM 36.6230 -107.6000 72° East 501 577 39,000  Level FlightAware
11:11PM 36.6540 -107.4840 72° East 501 577 39,000  Level FlightAware
11:11PM 36.6780 -107.3900 72° East 501 577 39,000  Level FlightAware
11:12PM 36.7020 -107.2970 72° East 501 577 39,000  Level FlightAware
11:13PM 36.7270 -107.2030 72° East 501 577 39,000  Level FlightAware
11:13PM 36.7510 -107.1100 72° East 501 577 39,000  Level FlightAware
11:14PM 36.7810 -106.9930 72° East 501 577 39,000  Level FlightAware
11:15PM 36.8060 -106.8990 72° East 501 577 39,000  Level FlightAware
11:15PM 36.8300 -106.8060 72° East 501 577 39,000  Level FlightAware
11:16PM 36.8550 -106.7120 72° East 501 577 39,000  Level FlightAware
11:17PM 36.8790 -106.6180 72° East 501 577 39,000  Level FlightAware
11:18PM 36.9303 -106.2994 72° East 493 567 39,000  Level Denver Center
11:19PM 36.9656 -106.1489 74° East 493 567 39,000  Level Denver Center
11:24PM 37.1691 -105.1310 74° East 490 564 39,000  Level FlightAware ADS-B
11:25PM 37.1930 -105.0060 76° East 490 564 39,000  Level FlightAware ADS-B
11:26PM 37.2118 -104.9060 77° East 490 564 39,000  Level FlightAware ADS-B
11:29PM 37.3033 -104.4150 77° East 496 571 39,000  Level FlightAware ADS-B
11:30PM 37.3267 -104.2870 77° East 499 574 39,000  Level FlightAware ADS-B
11:30PM 37.3431 -104.1970 77° East 500 575 39,000  Level FlightAware ADS-B
11:31PM 37.3686 -104.0540 77° East 493 567 39,000  Level FlightAware ADS-B
11:31PM 37.3849 -103.9640 77° East 490 564 39,000  Level FlightAware ADS-B
11:32PM 37.4004 -103.8790 77° East 491 565 39,000  Level FlightAware ADS-B
11:32PM 37.4158 -103.7930 77° East 492 566 39,000  Level FlightAware ADS-B
11:33PM 37.4325 -103.6990 77° East 492 566 39,000  Level FlightAware ADS-B
11:34PM 37.4474 -103.6140 78° East 491 565 39,000  Level FlightAware ADS-B
11:34PM 37.4623 -103.5300 77° East 491 565 39,000  Level FlightAware ADS-B
11:35PM 37.4770 -103.4460 78° East 489 563 39,000  Level FlightAware ADS-B
11:35PM 37.4915 -103.3630 78° East 488 562 39,000  Level FlightAware ADS-B
11:36PM 37.5061 -103.2790 78° East 485 558 39,000  Level FlightAware ADS-B
11:36PM 37.5204 -103.1970 78° East 483 556 39,000  Level FlightAware ADS-B
11:37PM 37.5350 -103.1120 78° East 482 555 39,000  Level FlightAware ADS-B
11:37PM 37.5498 -103.0260 78° East 481 554 39,000  Level FlightAware ADS-B
11:38PM 37.5643 -102.9410 78° East 480 552 39,000  Level FlightAware ADS-B
11:38PM 37.5783 -102.8590 78° East 478 550 39,000  Level FlightAware ADS-B
11:39PM 37.5921 -102.7770 78° East 477 549 39,000  Level FlightAware ADS-B
11:39PM 37.6059 -102.6950 78° East 475 547 39,000  Level FlightAware ADS-B
11:40PM 37.6193 -102.6140 78° East 474 545 39,000  Level FlightAware ADS-B
11:40PM 37.6328 -102.5330 78° East 471 542 39,000  Level FlightAware ADS-B
11:41PM 37.6464 -102.4520 78° East 469 540 39,000  Level FlightAware ADS-B
11:41PM 37.6600 -102.3700 78° East 468 539 39,000  Level FlightAware ADS-B
11:42PM 37.6733 -102.2890 78° East 466 536 39,000  Level FlightAware ADS-B
11:42PM 37.6865 -102.2080 78° East 464 534 39,000  Level FlightAware ADS-B
11:43PM 37.6996 -102.1280 78° East 462 532 39,000  Level FlightAware ADS-B
11:43PM 37.7132 -102.0440 78° East 461 531 39,000  Level FlightAware ADS-B
11:44PM 37.7263 -101.9640 78° East 463 533 39,000  Level FlightAware ADS-B
11:44PM 37.7414 -101.8753 78° East 461 531 39,000  Level Denver Center
11:45PM 37.7647 -101.7219 79° East 463 533 39,000  Level Denver Center
11:46PM 37.7925 -101.5447 79° East 461 531 39,000  Level Denver Center
11:47PM 37.8172 -101.3919 78° East 461 531 39,000  Level Denver Center
11:48PM 37.8408 -101.2386 79° East 462 532 39,000  Level Denver Center
11:49PM 37.8683 -101.0592 79° East 463 533 39,000  Level Denver Center
11:50PM 37.8925 -100.9033 79° East 465 535 39,000  Level Denver Center
11:51PM 37.9164 -100.7450 79° East 471 542 39,000  Level Denver Center
11:53PM 37.9536 -100.5667 75° East 467 537 39,000  Level Kansas City Center
11:54PM 37.9881 -100.4153 74° East 466 536 39,000  Level Kansas City Center
11:55PM 38.0256 -100.2394 75° East 463 533 39,000  Level Kansas City Center
11:56PM 38.0592 -100.0900 74° East 460 529 39,000  Level Kansas City Center
11:57PM 38.0914 -99.9425 74° East 456 525 39,000  Level Kansas City Center
11:58PM 38.1286 -99.7717 74° East 451 519 39,000  Level Kansas City Center
11:59PM 38.1589 -99.6242 75° East 450 518 39,000  Level Kansas City Center
12:00AM 38.1919 -99.4803 74° East 450 518 39,000  Level Kansas City Center
12:01AM 38.2239 -99.3225 76° East 457 526 39,000  Level Kansas City Center
12:02AM 38.2575 -99.1642 75° East 461 531 39,000  Level Kansas City Center
12:03AM 38.2917 -99.0083 74° East 459 528 39,000  Level Kansas City Center
12:04AM 38.3250 -98.8497 75° East 460 529 39,000  Level Kansas City Center
12:05AM 38.3597 -98.6925 74° East 459 528 39,000  Level Kansas City Center
12:06AM 38.3919 -98.5353 75° East 457 526 39,000  Level Kansas City Center
12:07AM 38.4297 -98.3447 76° East 458 527 39,000  Level Kansas City Center
12:08AM 38.4617 -98.1883 75° East 456 525 39,000  Level Kansas City Center
12:09AM 38.4931 -98.0314 76° East 454 522 39,000  Level Kansas City Center
12:10AM 38.5389 -97.8831 68° East 449 517 39,000  Level Kansas City Center
12:11AM 38.5883 -97.7342 67° East 452 520 39,000  Level Kansas City Center
12:12AM 38.6381 -97.5839 67° East 457 526 39,000  Level Kansas City Center
12:13AM 38.6864 -97.4347 67° East 455 524 39,000  Level Kansas City Center
12:14AM 38.7358 -97.2847 67° East 456 525 39,000  Level Kansas City Center
12:15AM 38.7842 -97.1353 67° East 454 522 39,000  Level Kansas City Center
12:16AM 38.8319 -96.9864 68° East 453 521 39,000  Level Kansas City Center
12:22AM 39.1130 -96.0960 68° East 447 514 39,000  Level FlightAware
12:23AM 39.1530 -95.9670 68° East 446 513 39,000  Level FlightAware
12:23AM 39.1800 -95.8830 67° East 446 513 39,000  Level FlightAware
12:24AM 39.1850 -95.8620 73° East 446 513 39,000  Level FlightAware
12:25AM 39.2150 -95.7680 68° East 448 516 39,000  Level FlightAware
12:26AM 39.2420 -95.6790 69° East 448 516 39,000  Level FlightAware
12:26AM 39.2710 -95.5830 69° East 450 518 39,000  Level FlightAware
12:27AM 39.2990 -95.4910 69° East 450 518 39,000  Level FlightAware
12:28AM 39.3390 -95.3590 69° East 451 519 39,000  Level FlightAware
12:28AM 39.3670 -95.2680 68° East 452 520 39,000  Level FlightAware
12:29AM 39.4050 -95.1410 69° East 452 520 39,000  Level FlightAware
12:30AM 39.4290 -95.0620 69° East 452 520 39,000  Level FlightAware
12:30AM 39.4670 -94.9330 69° East 452 520 39,000  Level FlightAware
12:31AM 39.4900 -94.8570 69° East 452 520 39,000  Level FlightAware
12:32AM 39.5110 -94.7850 69° East 452 520 39,000  Level FlightAware
12:33AM 39.5450 -94.6730 68° East 450 518 39,000  Level FlightAware
12:33AM 39.6300 -94.3820 69° East 444 511 39,000  Level FlightAware
12:34AM 39.6620 -94.2730 69° East 444 511 39,000  Level FlightAware
12:35AM 39.6910 -94.1730 69° East 445 512 39,000  Level FlightAware
12:35AM 39.7190 -94.0730 70° East 444 511 39,000  Level FlightAware
12:36AM 39.7520 -93.9590 69° East 444 511 39,000  Level FlightAware
12:37AM 39.7810 -93.8580 69° East 444 511 39,000  Level FlightAware
12:37AM 39.8120 -93.7500 69° East 444 511 39,000  Level FlightAware
12:38AM 39.8410 -93.6490 69° East 443 510 39,000  Level FlightAware
12:39AM 39.8690 -93.5490 70° East 441 507 39,000  Level FlightAware
12:40AM 39.9010 -93.4380 69° East 442 509 39,000  Level FlightAware
12:40AM 39.9300 -93.3340 70° East 443 510 39,000  Level FlightAware
12:41AM 39.9580 -93.2340 70° East 445 512 39,000  Level FlightAware
12:42AM 39.9870 -93.1300 70° East 447 514 39,000  Level FlightAware
12:42AM 40.0170 -93.0230 70° East 447 514 39,000  Level FlightAware
12:43AM 40.0540 -92.9070 67° East 451 519 39,000  Level FlightAware
12:44AM 40.0940 -92.8110 61° Northeast 450 518 39,000  Level FlightAware
12:44AM 40.1340 -92.7160 61° Northeast 449 517 39,000  Level FlightAware
12:45AM 40.1770 -92.6130 61° Northeast 449 517 39,000  Level FlightAware
12:46AM 40.2100 -92.5310 62° Northeast 449 517 39,000  Level FlightAware
12:47AM 40.2610 -92.4070 62° Northeast 447 514 39,000  Level FlightAware
12:47AM 40.3140 -92.2790 61° Northeast 446 513 39,000  Level FlightAware
12:48AM 40.3530 -92.1850 61° Northeast 446 513 39,000  Level FlightAware
12:49AM 40.3930 -92.0730 65° Northeast 442 509 39,000  Level FlightAware
12:50AM 40.4250 -91.9730 67° East 441 507 39,000  Level FlightAware
12:50AM 40.4500 -91.8940 67° East 440 506 39,000  Level FlightAware
12:51AM 40.4910 -91.7660 67° East 442 509 39,000  Level FlightAware
12:52AM 40.5210 -91.6710 67° East 442 509 39,000  Level FlightAware
12:52AM 40.5590 -91.5530 67° East 442 509 39,000  Level FlightAware
12:53AM 40.5900 -91.4560 67° East 441 507 39,000  Level FlightAware
12:54AM 40.6210 -91.3550 68° East 442 509 39,000  Level FlightAware
12:54AM 40.6560 -91.2480 67° East 441 507 39,000 -480 Level FlightAware
12:55AM 40.6860 -91.1490 68° East 427 491 38,400 -1,020 Descending FlightAware
12:56AM 40.7200 -91.0410 67° East 419 482 37,600 -1,020 Descending FlightAware
12:57AM 40.7490 -90.9460 68° East 423 487 37,000 -1,020 Descending FlightAware
12:57AM 40.7790 -90.8500 68° East 424 488 36,300 -1,020 Descending FlightAware
12:58AM 40.8120 -90.7410 68° East 425 489 35,600 -1,020 Descending FlightAware
12:59AM 40.8410 -90.6480 68° East 428 493 34,900 -1,080 Descending FlightAware
12:59AM 40.8750 -90.5390 68° East 428 493 34,100 -1,560 Descending FlightAware
01:00AM 40.9040 -90.4410 69° East 416 479 32,700 -1,920 Descending FlightAware
01:01AM 40.9350 -90.3390 68° East 413 475 31,400 -1,800 Descending FlightAware
01:01AM 40.9640 -90.2440 68° East 416 479 30,200 -1,800 Descending FlightAware
01:02AM 40.9920 -90.1500 68° East 416 479 29,000 -1,800 Descending FlightAware
01:03AM 41.0250 -90.0400 68° East 436 502 27,700 -1,800 Descending FlightAware
01:04AM 41.0560 -89.9390 68° East 436 502 26,500 -1,800 Descending FlightAware
01:04AM 41.0880 -89.8300 69° East 434 499 25,200 -1,800 Descending FlightAware
01:05AM 41.1170 -89.7330 68° East 429 494 24,000 -1,800 Descending FlightAware
01:06AM 41.1460 -89.6350 69° East 423 487 22,800 -1,860 Descending FlightAware
01:06AM 41.1840 -89.5280 65° Northeast 418 481 21,400 -1,860 Descending FlightAware
01:07AM 41.2210 -89.4370 62° Northeast 413 475 20,200 -1,860 Descending FlightAware
01:08AM 41.2610 -89.3380 62° Northeast 400 460 18,800 -1,800 Descending FlightAware
01:08AM 41.2940 -89.2570 62° Northeast 391 450 17,700 -1,740 Descending FlightAware
01:09AM 41.3280 -89.1720 62° Northeast 390 449 16,500 -1,860 Descending FlightAware
01:10AM 41.3660 -89.0770 62° Northeast 373 429 15,100 -1,860 Descending FlightAware
01:11AM 41.3980 -88.9960 62° Northeast 361 415 13,900 -1,800 Descending FlightAware
01:11AM 41.4280 -88.9200 62° Northeast 349 402 12,700 -1,860 Descending FlightAware
01:12AM 41.4610 -88.8380 62° Northeast 339 390 11,300 -1,140 Descending FlightAware
01:13AM 41.4930 -88.7560 62° Northeast 320 368 11,000 -240 Descending FlightAware
01:13AM 41.5210 -88.6860 62° Northeast 316 364 11,000  Level FlightAware
01:14AM 41.5480 -88.6170 62° Northeast 315 362 11,000  Level FlightAware
01:15AM 41.5780 -88.5420 62° Northeast 319 367 11,000  Level FlightAware
01:15AM 41.6070 -88.4710 61° Northeast 323 372 11,000  Level FlightAware
01:16AM 41.6480 -88.4000 52° Northeast 304 350 11,000  Level FlightAware
01:17AM 41.6800 -88.3450 52° Northeast 260 299 11,000 -600 Level FlightAware
01:18AM 41.7080 -88.2970 52° Northeast 245 282 10,200 -1,320 Descending FlightAware
01:18AM 41.7240 -88.2690 53° Northeast 242 278 9,600 -1,080 Descending FlightAware
01:18AM 41.7380 -88.2460 51° Northeast 226 260 9,400 -720 Descending FlightAware
01:19AM 41.7540 -88.2190 52° Northeast 212 244 9,100 -1,020 Descending FlightAware
01:19AM 41.7740 -88.1920 45° Northeast 217 250 8,500 -1,380 Descending FlightAware
01:19AM 41.7850 -88.1890 11° North 224 258 8,200 -1,620 Descending FlightAware
01:20AM 41.8060 -88.1910 356° North 227 261 7,700 -1,500 Descending FlightAware
01:20AM 41.8310 -88.1940 355° North 231 266 7,100 -1,380 Descending FlightAware
01:20AM 41.8470 -88.2020 340° North 231 266 6,800 -1,020 Descending FlightAware
01:21AM 41.8560 -88.2170 309° West 225 259 6,600 -1,020 Descending FlightAware
01:21AM 41.8630 -88.2370 295° West 223 257 6,300 -1,080 Descending FlightAware
01:21AM 41.8720 -88.2680 291° West 222 255 5,900 -1,020 Descending FlightAware
01:22AM 41.8850 -88.3060 295° West 223 257 5,400 -900 Descending FlightAware
01:22AM 41.8910 -88.3160 309° West 229 264 5,300 -960 Descending FlightAware
01:22AM 41.9070 -88.3240 340° North 228 262 5,000 -1,080 Descending FlightAware
01:23AM 41.9380 -88.3290 353° North 230 265 4,500 -1,080 Descending FlightAware
01:23AM 41.9430 -88.3290 360° North 228 262 4,400 -1,020 Descending FlightAware
01:23AM 41.9640 -88.3120 31° Northeast 191 220 4,000 -720 Descending FlightAware
01:23AM 41.9660 -88.3020 75° East 182 209 4,000  Level FlightAware
01:24AM 41.9680 -88.2860 80° East 177 204 4,000  Level FlightAware
01:24AM 41.9680 -88.2360 90° East 175 201 4,000  Level FlightAware
01:25AM 41.9680 -88.2140 90° East 175 201 4,000  Level FlightAware
01:25AM 41.9680 -88.1790 90° East 174 200 4,000  Level FlightAware
01:25AM 41.9680 -88.1730 90° East 174 200 4,000 -780 Level FlightAware
01:26AM 41.9680 -88.1170 90° East 174 200 3,300 -900 Descending FlightAware
01:27AM 41.9690 -88.0850 88° East 163 188 2,800 -840 Descending FlightAware
01:27AM 41.9690 -88.0520 90° East 154 177 2,400 -780 Descending FlightAware
01:28AM 41.9690 -88.0200 90° East 132 152 1,900 -720 Descending FlightAware
01:28AM 41.9690 -88.0020 90° East 128 147 1,700 -600 Descending FlightAware
01:29AM 41.9690 -87.9900 90° East 128 147 1,500 -720 Descending FlightAware
01:29AM 41.9690 -87.9740 90° East 125 144 1,300 -720 Descending FlightAware
01:29AM 41.9690 -87.9530 90° East 135 155 1,000 -720 Descending FlightAware
01:30AM 41.9690 -87.9310 90° East 145 167 700 -720 Descending FlightAware